createdAt,value
2018-08-22T00:00:49.154Z,101736.66
2018-08-22T00:03:17.487Z,101739.92
2018-08-22T00:05:45.815Z,101731.94
2018-08-22T00:08:14.228Z,101731.56
2018-08-22T00:10:42.543Z,101732.53
2018-08-22T00:13:10.880Z,101729.81
2018-08-22T00:15:39.232Z,101728.63
2018-08-22T00:18:07.563Z,101733.08
2018-08-22T00:20:35.905Z,101732.31
2018-08-22T00:23:04.420Z,101734.70
2018-08-22T00:25:32.746Z,101730.34
2018-08-22T00:28:01.074Z,101732.34
2018-08-22T00:30:29.418Z,101732.96
2018-08-22T00:32:57.779Z,101737.20
2018-08-22T00:35:26.155Z,101730.35
2018-08-22T00:37:54.510Z,101735.55
2018-08-22T00:40:22.844Z,101740.97
2018-08-22T00:42:51.194Z,101729.35
2018-08-22T00:45:19.538Z,101730.12
2018-08-22T00:47:47.889Z,101736.68
2018-08-22T00:50:16.229Z,101732.77
2018-08-22T00:52:45.836Z,101727.45
2018-08-22T00:55:14.187Z,101733.84
2018-08-22T00:57:42.544Z,101731.13
2018-08-22T01:00:11.074Z,101731.03
2018-08-22T01:02:39.427Z,101736.61
2018-08-22T01:05:07.766Z,101731.67
2018-08-22T01:07:36.143Z,101737.42
2018-08-22T01:10:04.974Z,101731.61
2018-08-22T01:12:33.311Z,101737.97
2018-08-22T01:15:01.659Z,101733.67
2018-08-22T01:17:29.974Z,101734.34
2018-08-22T01:19:58.313Z,101732.92
2018-08-22T01:22:26.660Z,101730.27
2018-08-22T01:24:55.045Z,101724.08
2018-08-22T01:27:23.965Z,101724.95
2018-08-22T01:29:54.407Z,101728.20
2018-08-22T01:32:23.181Z,101726.62
2018-08-22T01:34:52.895Z,101731.03
2018-08-22T01:37:21.207Z,101724.80
2018-08-22T01:39:49.648Z,101718.59
2018-08-22T01:42:18.639Z,101719.80
2018-08-22T01:44:47.329Z,101722.57
2018-08-22T01:47:16.011Z,101717.16
2018-08-22T01:49:44.361Z,101711.73
2018-08-22T01:52:12.697Z,101711.11
2018-08-22T01:54:41.047Z,101711.50
2018-08-22T01:57:09.396Z,101710.33
2018-08-22T01:59:37.735Z,101708.90
2018-08-22T02:02:06.079Z,101710.31
2018-08-22T02:04:34.431Z,101710.56
2018-08-22T02:07:02.776Z,101707.22
2018-08-22T02:09:31.116Z,101701.23
2018-08-22T02:11:59.466Z,101702.59
2018-08-22T02:14:27.801Z,101698.62
2018-08-22T02:16:56.163Z,101700.55
2018-08-22T02:19:24.532Z,101693.60
2018-08-22T02:21:52.856Z,101694.56
2018-08-22T02:24:21.232Z,101694.72
2018-08-22T02:26:49.557Z,101698.94
2018-08-22T02:29:17.874Z,101695.69
2018-08-22T02:31:46.257Z,101705.05
2018-08-22T02:34:14.619Z,101698.75
2018-08-22T02:36:42.981Z,101699.06
2018-08-22T02:39:11.331Z,101704.95
2018-08-22T02:41:39.681Z,101697.55
2018-08-22T02:44:08.033Z,101695.42
2018-08-22T02:46:36.412Z,101697.22
2018-08-22T02:49:04.749Z,101695.09
2018-08-22T02:51:33.124Z,101698.19
2018-08-22T02:54:01.462Z,101689.82
2018-08-22T02:56:29.808Z,101692.05
2018-08-22T02:58:58.149Z,101695.08
2018-08-22T03:01:26.491Z,101696.34
2018-08-22T03:03:54.804Z,101690.15
2018-08-22T03:06:23.148Z,101688.86
2018-08-22T03:08:51.461Z,101689.72
2018-08-22T03:11:20.095Z,101701.81
2018-08-22T03:13:48.458Z,101688.94
2018-08-22T03:16:16.790Z,101691.41
2018-08-22T03:18:45.134Z,101700.45
2018-08-22T03:21:14.018Z,101694.80
2018-08-22T03:23:42.377Z,101693.78
2018-08-22T03:26:10.738Z,101695.03
2018-08-22T03:28:39.411Z,101691.93
2018-08-22T03:31:07.745Z,101686.36
2018-08-22T03:33:36.123Z,101695.27
2018-08-22T03:36:04.466Z,101694.87
2018-08-22T03:38:33.458Z,101691.92
2018-08-22T03:41:02.148Z,101689.84
2018-08-22T03:43:30.476Z,101692.31
2018-08-22T03:45:58.814Z,101692.69
2018-08-22T03:48:27.148Z,101692.38
2018-08-22T03:50:55.483Z,101689.59
2018-08-22T03:53:23.817Z,101689.42
2018-08-22T03:55:52.146Z,101686.16
2018-08-22T03:58:20.476Z,101689.00
2018-08-22T04:00:48.808Z,101690.78
2018-08-22T04:03:17.282Z,101688.84
2018-08-22T04:05:45.599Z,101687.57
2018-08-22T04:08:13.971Z,101689.12
2018-08-22T04:10:44.553Z,101687.96
2018-08-22T04:13:12.957Z,101689.70
2018-08-22T04:15:41.807Z,101686.77
2018-08-22T04:18:10.121Z,101687.11
2018-08-22T04:20:38.435Z,101681.84
2018-08-22T04:23:06.768Z,101690.35
2018-08-22T04:25:35.155Z,101688.36
2018-08-22T04:28:03.484Z,101687.31
2018-08-22T04:30:31.787Z,101690.81
2018-08-22T04:33:00.109Z,101686.61
2018-08-22T04:35:28.442Z,101681.20
2018-08-22T04:37:56.753Z,101687.63
2018-08-22T04:40:25.100Z,101687.23
2018-08-22T04:42:53.481Z,101687.63
2018-08-22T04:45:21.889Z,101683.27
2018-08-22T04:47:50.234Z,101692.08
2018-08-22T04:50:18.591Z,101681.69
2018-08-22T04:52:46.914Z,101686.02
2018-08-22T04:55:15.246Z,101683.91
2018-08-22T04:57:43.571Z,101686.61
2018-08-22T05:00:11.884Z,101688.70
2018-08-22T05:02:40.430Z,101681.31
2018-08-22T05:05:08.911Z,101685.77
2018-08-22T05:07:37.268Z,101689.81
2018-08-22T05:10:06.128Z,101691.42
2018-08-22T05:12:34.467Z,101692.20
2018-08-22T05:15:02.782Z,101686.55
2018-08-22T05:17:31.115Z,101689.92
2018-08-22T05:19:59.447Z,101690.56
2018-08-22T05:22:27.767Z,101688.64
2018-08-22T05:24:56.123Z,101689.56
2018-08-22T05:27:24.460Z,101685.75
2018-08-22T05:29:52.779Z,101684.88
2018-08-22T05:32:21.181Z,101686.24
2018-08-22T05:34:49.605Z,101690.87
2018-08-22T05:37:17.951Z,101688.66
2018-08-22T05:39:46.337Z,101686.18
2018-08-22T05:42:14.679Z,101682.30
2018-08-22T05:44:43.026Z,101680.78
2018-08-22T05:47:11.378Z,101675.03
2018-08-22T05:49:39.788Z,101677.52
2018-08-22T05:52:08.197Z,101677.73
2018-08-22T05:54:36.570Z,101676.02
2018-08-22T05:57:04.912Z,101672.64
2018-08-22T05:59:33.267Z,101673.19
2018-08-22T06:02:01.647Z,101673.31
2018-08-22T06:04:29.986Z,101675.02
2018-08-22T06:06:58.331Z,101681.09
2018-08-22T06:09:26.727Z,101676.25
2018-08-22T06:11:55.067Z,101672.89
2018-08-22T06:14:23.427Z,101676.73
2018-08-22T06:16:51.781Z,101673.47
2018-08-22T06:19:20.129Z,101675.62
2018-08-22T06:21:48.474Z,101678.42
2018-08-22T06:24:16.825Z,101665.94
2018-08-22T06:26:45.190Z,101676.84
2018-08-22T06:29:13.514Z,101674.97
2018-08-22T06:31:41.893Z,101669.17
2018-08-22T06:34:10.243Z,101667.44
2018-08-22T06:36:38.590Z,101667.23
2018-08-22T06:39:09.156Z,101665.02
2018-08-22T06:41:37.646Z,101662.19
2018-08-22T06:44:05.985Z,101659.47
2018-08-22T06:46:34.348Z,101658.66
2018-08-22T06:49:02.693Z,101663.89
2018-08-22T06:51:31.072Z,101656.20
2018-08-22T06:53:59.385Z,101657.80
2018-08-22T06:56:27.715Z,101657.20
2018-08-22T06:58:56.018Z,101652.88
2018-08-22T07:01:24.348Z,101656.94
2018-08-22T07:03:52.665Z,101652.92
2018-08-22T07:06:21.009Z,101655.44
2018-08-22T07:08:49.344Z,101648.25
2018-08-22T07:11:17.695Z,101644.14
2018-08-22T07:13:46.064Z,101641.89
2018-08-22T07:16:14.520Z,101642.77
2018-08-22T07:18:42.888Z,101634.55
2018-08-22T07:21:11.225Z,101629.97
2018-08-22T07:23:39.565Z,101634.20
2018-08-22T07:26:07.929Z,101630.16
2018-08-22T07:28:36.284Z,101628.38
2018-08-22T07:31:05.012Z,101622.52
2018-08-22T07:33:33.379Z,101624.27
2018-08-22T07:36:02.588Z,101626.84
2018-08-22T07:38:30.930Z,101624.92
2018-08-22T07:40:59.370Z,101621.61
2018-08-22T07:43:27.716Z,101617.52
2018-08-22T07:45:56.502Z,101613.59
2018-08-22T07:48:24.902Z,101613.89
2018-08-22T07:50:53.225Z,101613.81
2018-08-22T07:53:21.577Z,101612.11
2018-08-22T07:55:50.805Z,101611.76
2018-08-22T07:58:19.184Z,101614.44
2018-08-22T08:00:47.564Z,101619.84
2018-08-22T08:03:15.921Z,101611.19
2018-08-22T08:05:44.319Z,101619.23
2018-08-22T08:08:12.715Z,101609.05
2018-08-22T08:10:41.088Z,101611.48
2018-08-22T08:13:13.859Z,101605.00
2018-08-22T08:15:42.680Z,101603.56
2018-08-22T08:18:11.060Z,101608.30
2018-08-22T08:20:39.449Z,101598.09
2018-08-22T08:23:08.369Z,101591.56
2018-08-22T08:25:36.782Z,101587.84
2018-08-22T08:28:05.607Z,101584.35
2018-08-22T08:30:34.032Z,101584.98
2018-08-22T08:33:02.702Z,101580.98
2018-08-22T08:35:31.220Z,101577.73
2018-08-22T08:37:59.570Z,101581.98
2018-08-22T08:40:28.912Z,101580.00
2018-08-22T08:42:58.200Z,101574.95
2018-08-22T08:45:26.593Z,101576.25
2018-08-22T08:47:55.336Z,101569.25
2018-08-22T08:50:24.393Z,101567.09
2018-08-22T08:52:52.844Z,101561.98
2018-08-22T08:55:21.328Z,101561.70
2018-08-22T08:57:49.740Z,101553.60
2018-08-22T09:00:18.073Z,101545.03
2018-08-22T09:02:47.427Z,101542.05
2018-08-22T09:05:15.803Z,101546.59
2018-08-22T09:07:44.133Z,101541.59
2018-08-22T09:10:12.462Z,101544.00
2018-08-22T09:12:40.800Z,101531.22
2018-08-22T09:15:09.170Z,101536.38
2018-08-22T09:17:37.564Z,101530.48
2018-08-22T09:20:07.369Z,101525.95
2018-08-22T09:22:35.767Z,101531.34
2018-08-22T09:25:04.118Z,101531.16
2018-08-22T09:27:32.498Z,101534.20
2018-08-22T09:30:00.838Z,101528.82
2018-08-22T09:32:29.240Z,101528.22
2018-08-22T09:34:57.679Z,101520.03
2018-08-22T09:37:26.011Z,101523.45
2018-08-22T09:39:54.366Z,101526.41
2018-08-22T09:42:22.730Z,101528.66
2018-08-22T09:44:51.082Z,101518.19
2018-08-22T09:47:19.396Z,101513.99
2018-08-22T09:49:47.791Z,101504.78
2018-08-22T09:52:16.083Z,101500.60
2018-08-22T09:54:56.545Z,101498.60
2018-08-22T09:57:26.107Z,101505.78
2018-08-22T09:59:54.437Z,101497.52
2018-08-22T10:02:22.986Z,101486.73
2018-08-22T10:04:51.685Z,101487.11
2018-08-22T10:07:20.037Z,101491.43
2018-08-22T10:09:48.486Z,101488.22
2018-08-22T10:12:16.851Z,101484.61
2018-08-22T10:14:45.247Z,101479.89
2018-08-22T10:17:13.632Z,101484.95
2018-08-22T10:19:42.183Z,101478.05
2018-08-22T10:22:10.533Z,101482.59
2018-08-22T10:24:38.884Z,101470.28
2018-08-22T10:27:07.236Z,101465.19
2018-08-22T10:29:35.577Z,101459.02
2018-08-22T10:32:03.919Z,101467.06
2018-08-22T10:34:32.256Z,101462.39
2018-08-22T10:37:00.580Z,101461.30
2018-08-22T10:39:28.953Z,101449.48
2018-08-22T10:41:57.261Z,101452.09
2018-08-22T10:44:25.653Z,101450.22
2018-08-22T10:46:54.449Z,101448.19
2018-08-22T10:49:22.792Z,101447.73
2018-08-22T10:51:51.160Z,101448.34
2018-08-22T10:54:19.489Z,101451.14
2018-08-22T10:56:47.839Z,101452.22
2018-08-22T10:59:16.730Z,101452.14
2018-08-22T11:01:45.085Z,101447.83
2018-08-22T11:04:13.427Z,101443.92
2018-08-22T11:06:41.790Z,101436.27
2018-08-22T11:09:11.180Z,101441.94
2018-08-22T11:11:39.526Z,101436.98
2018-08-22T11:14:08.234Z,101424.80
2018-08-22T11:16:37.561Z,101426.03
2018-08-22T11:19:06.416Z,101425.78
2018-08-22T11:21:46.047Z,101415.77
2018-08-22T11:24:25.836Z,101432.55
2018-08-22T11:27:05.436Z,101425.31
2018-08-22T11:29:45.241Z,101427.03
2018-08-22T11:32:25.029Z,101427.98
2018-08-22T11:34:53.464Z,101416.77
2018-08-22T11:37:21.858Z,101418.80
2018-08-22T11:39:51.204Z,101418.88
2018-08-22T11:42:20.005Z,101420.16
2018-08-22T11:44:48.358Z,101423.81
2018-08-22T11:47:16.683Z,101416.44
2018-08-22T11:49:45.045Z,101416.91
2018-08-22T11:52:13.389Z,101417.42
2018-08-22T11:54:41.727Z,101408.33
2018-08-22T11:57:10.176Z,101406.77
2018-08-22T11:59:39.016Z,101415.62
2018-08-22T12:02:07.367Z,101405.36
2018-08-22T12:04:35.807Z,101398.27
2018-08-22T12:07:04.146Z,101397.67
2018-08-22T12:09:32.464Z,101398.67
2018-08-22T12:12:00.820Z,101393.16
2018-08-22T12:14:29.154Z,101390.80
2018-08-22T12:16:57.495Z,101389.17
2018-08-22T12:19:25.841Z,101386.45
2018-08-22T12:21:54.171Z,101382.98
2018-08-22T12:24:22.494Z,101379.70
2018-08-22T12:26:50.829Z,101376.66
2018-08-22T12:29:19.152Z,101382.34
2018-08-22T12:31:47.488Z,101385.46
2018-08-22T12:34:15.940Z,101375.63
2018-08-22T12:36:44.292Z,101371.84
2018-08-22T12:39:12.631Z,101373.00
2018-08-22T12:41:40.981Z,101361.81
2018-08-22T12:44:09.327Z,101363.49
2018-08-22T12:46:37.688Z,101365.77
2018-08-22T12:49:06.041Z,101361.00
2018-08-22T12:51:34.415Z,101353.78
2018-08-22T12:54:02.780Z,101353.30
2018-08-22T12:56:31.171Z,101340.56
2018-08-22T12:58:59.537Z,101345.65
2018-08-22T13:01:27.860Z,101344.18
2018-08-22T13:03:56.223Z,101338.16
2018-08-22T13:06:24.538Z,101331.02
2018-08-22T13:08:52.929Z,101325.22
2018-08-22T13:11:21.285Z,101325.56
2018-08-22T13:13:49.647Z,101320.19
2018-08-22T13:16:18.018Z,101319.89
2018-08-22T13:18:46.344Z,101314.59
2018-08-22T13:21:14.875Z,101317.05
2018-08-22T13:23:43.309Z,101317.78
2018-08-22T13:26:11.634Z,101315.20
2018-08-22T13:28:39.998Z,101301.95
2018-08-22T13:31:08.343Z,101301.86
2018-08-22T13:33:36.712Z,101301.14
2018-08-22T13:36:05.115Z,101289.09
2018-08-22T13:38:33.468Z,101297.01
2018-08-22T13:41:01.804Z,101292.36
2018-08-22T13:43:30.140Z,101303.68
2018-08-22T13:45:58.577Z,101296.27
2018-08-22T13:48:27.015Z,101295.72
2018-08-22T13:50:55.437Z,101289.02
2018-08-22T13:53:23.712Z,101287.98
2018-08-22T13:55:52.127Z,101286.91
2018-08-22T13:58:20.485Z,101281.36
2018-08-22T14:00:48.836Z,101285.48
2018-08-22T14:03:17.174Z,101272.73
2018-08-22T14:05:45.543Z,101269.45
2018-08-22T14:08:13.916Z,101276.81
2018-08-22T14:10:42.258Z,101280.08
2018-08-22T14:13:10.644Z,101271.98
2018-08-22T14:15:39.011Z,101273.53
2018-08-22T14:18:07.463Z,101274.57
2018-08-22T14:20:35.893Z,101262.53
2018-08-22T14:23:04.260Z,101265.07
2018-08-22T14:25:32.595Z,101270.23
2018-08-22T14:28:00.948Z,101258.70
2018-08-22T14:30:29.285Z,101256.26
2018-08-22T14:32:57.690Z,101252.52
2018-08-22T14:35:26.049Z,101244.73
2018-08-22T14:37:54.389Z,101241.69
2018-08-22T14:40:22.735Z,101239.23
2018-08-22T14:42:51.149Z,101237.55
2018-08-22T14:45:20.848Z,101234.54
2018-08-22T14:47:49.284Z,101234.89
2018-08-22T14:50:17.659Z,101233.47
2018-08-22T14:52:46.031Z,101235.88
2018-08-22T14:55:14.366Z,101229.47
2018-08-22T14:57:43.013Z,101225.17
2018-08-22T15:00:11.373Z,101215.85
2018-08-22T15:02:40.110Z,101226.77
2018-08-22T15:05:09.368Z,101216.75
2018-08-22T15:07:38.374Z,101217.09
2018-08-22T15:10:06.834Z,101215.83
2018-08-22T15:12:35.174Z,101219.80
2018-08-22T15:15:03.531Z,101220.36
2018-08-22T15:17:31.868Z,101216.71
2018-08-22T15:20:00.236Z,101215.51
2018-08-22T15:22:28.582Z,101215.30
2018-08-22T15:24:57.028Z,101210.83
2018-08-22T15:27:25.405Z,101209.92
2018-08-22T15:29:53.769Z,101203.70
2018-08-22T15:32:22.347Z,101198.88
2018-08-22T15:34:57.727Z,101197.16
2018-08-22T15:37:26.623Z,101190.55
2018-08-22T15:39:54.968Z,101184.70
2018-08-22T15:42:23.343Z,101185.57
2018-08-22T15:44:51.744Z,101182.37
2018-08-22T15:47:20.268Z,101180.70
2018-08-22T15:49:48.566Z,101174.36
2018-08-22T15:52:16.993Z,101175.00
2018-08-22T15:55:01.309Z,101176.51
2018-08-22T15:57:40.542Z,101176.33
2018-08-22T16:00:08.943Z,101172.34
2018-08-22T16:02:37.299Z,101170.97
2018-08-22T16:05:06.562Z,101170.66
2018-08-22T16:07:35.821Z,101167.52
2018-08-22T16:10:05.031Z,101173.06
2018-08-22T16:12:33.878Z,101168.73
2018-08-22T16:15:02.288Z,101171.44
2018-08-22T16:17:31.017Z,101162.12
2018-08-22T16:19:59.382Z,101160.70
2018-08-22T16:22:28.028Z,101154.16
2018-08-22T16:24:57.175Z,101156.39
2018-08-22T16:27:26.267Z,101150.17
2018-08-22T16:29:54.780Z,101145.80
2018-08-22T16:32:23.235Z,101144.89
2018-08-22T16:34:51.617Z,101145.27
2018-08-22T16:37:20.053Z,101139.86
2018-08-22T16:39:49.058Z,101144.66
2018-08-22T16:42:23.806Z,101141.48
2018-08-22T16:44:52.128Z,101138.04
2018-08-22T16:47:24.677Z,101137.31
2018-08-22T16:49:53.031Z,101132.80
2018-08-22T16:52:21.390Z,101134.84
2018-08-22T16:54:59.111Z,101133.39
2018-08-22T16:57:28.065Z,101137.47
2018-08-22T16:59:56.413Z,101135.88
2018-08-22T17:02:24.783Z,101140.51
2018-08-22T17:04:53.136Z,101134.28
2018-08-22T17:07:21.612Z,101137.47
2018-08-22T17:09:50.572Z,101135.41
2018-08-22T17:12:18.952Z,101132.72
2018-08-22T17:14:47.419Z,101132.27
2018-08-22T17:17:15.837Z,101129.52
2018-08-22T17:19:44.175Z,101126.38
2018-08-22T17:22:13.006Z,101126.16
2018-08-22T17:24:41.393Z,101125.94
2018-08-22T17:27:09.778Z,101126.62
2018-08-22T17:29:38.162Z,101123.81
2018-08-22T17:32:06.877Z,101126.86
2018-08-22T17:34:35.383Z,101127.16
2018-08-22T17:37:08.284Z,101118.86
2018-08-22T17:39:36.636Z,101125.32
2018-08-22T17:42:05.012Z,101122.74
2018-08-22T17:44:33.353Z,101118.19
2018-08-22T17:47:01.740Z,101122.63
2018-08-22T17:49:30.099Z,101111.72
2018-08-22T17:52:00.183Z,101113.38
2018-08-22T17:54:28.681Z,101117.09
2018-08-22T17:57:10.664Z,101115.11
2018-08-22T17:59:39.541Z,101111.80
2018-08-22T18:02:07.880Z,101110.37
2018-08-22T18:04:59.910Z,101109.26
2018-08-22T18:07:28.307Z,101114.17
2018-08-22T18:09:56.684Z,101107.38
2018-08-22T18:12:26.272Z,101112.80
2018-08-22T18:14:57.568Z,101115.48
2018-08-22T18:17:25.915Z,101113.34
2018-08-22T18:19:54.249Z,101115.78
2018-08-22T18:22:22.629Z,101115.21
2018-08-22T18:24:56.407Z,101112.69
2018-08-22T18:27:25.051Z,101115.16
2018-08-22T18:29:53.405Z,101121.94
2018-08-22T18:32:21.822Z,101121.61
2018-08-22T18:35:01.635Z,101124.94
2018-08-22T18:37:30.870Z,101128.59
2018-08-22T18:40:08.510Z,101129.89
2018-08-22T18:42:36.887Z,101137.33
2018-08-22T18:45:05.983Z,101132.75
2018-08-22T18:47:35.298Z,101136.43
2018-08-22T18:50:03.980Z,101137.36
2018-08-22T18:52:32.564Z,101135.91
2018-08-22T18:55:01.676Z,101132.50
2018-08-22T18:57:30.071Z,101134.50
2018-08-22T18:59:58.472Z,101132.19
2018-08-22T19:02:27.206Z,101138.59
2018-08-22T19:05:01.429Z,101137.14
2018-08-22T19:07:30.557Z,101143.91
2018-08-22T19:09:58.970Z,101140.69
2018-08-22T19:12:27.632Z,101140.61
2018-08-22T19:14:55.962Z,101135.16
2018-08-22T19:17:24.378Z,101141.41
2018-08-22T19:19:52.723Z,101145.06
2018-08-22T19:22:21.070Z,101138.49
2018-08-22T19:25:03.683Z,101140.28
2018-08-22T19:27:33.222Z,101142.42
2018-08-22T19:30:01.923Z,101141.97
2018-08-22T19:32:30.260Z,101141.02
2018-08-22T19:34:58.638Z,101141.07
2018-08-22T19:37:27.964Z,101138.23
2018-08-22T19:40:02.692Z,101140.88
2018-08-22T19:42:32.432Z,101142.63
2018-08-22T19:45:00.990Z,101138.93
2018-08-22T19:47:29.410Z,101142.22
2018-08-22T19:49:58.963Z,101143.45
2018-08-22T19:52:27.352Z,101145.08
2018-08-22T19:54:55.886Z,101142.25
2018-08-22T19:57:29.765Z,101137.69
2018-08-22T19:59:58.345Z,101144.42
2018-08-22T20:02:27.154Z,101140.58
2018-08-22T20:04:56.756Z,101137.74
2018-08-22T20:07:26.269Z,101140.38
2018-08-22T20:09:56.040Z,101138.54
2018-08-22T20:12:36.269Z,101135.31
2018-08-22T20:15:06.026Z,101136.97
2018-08-22T20:17:34.420Z,101138.37
2018-08-22T20:20:03.062Z,101127.95
2018-08-22T20:22:37.492Z,101137.12
2018-08-22T20:25:06.975Z,101134.17
2018-08-22T20:27:35.310Z,101133.45
2018-08-22T20:30:11.962Z,101125.14
2018-08-22T20:32:53.054Z,101128.73
2018-08-22T20:35:26.807Z,101129.63
2018-08-22T20:37:55.482Z,101134.62
2018-08-22T20:40:23.841Z,101136.23
2018-08-22T20:42:52.286Z,101140.58
2018-08-22T20:45:25.900Z,101134.64
2018-08-22T20:48:10.231Z,101138.62
2018-08-22T20:50:40.043Z,101139.87
2018-08-22T20:53:09.757Z,101142.34
2018-08-22T20:55:38.171Z,101139.49
2018-08-22T20:58:06.520Z,101139.52
2018-08-22T21:00:35.848Z,101139.62
2018-08-22T21:03:04.336Z,101136.77
2018-08-22T21:05:32.776Z,101135.92
2018-08-22T21:08:01.129Z,101136.92
2018-08-22T21:10:29.493Z,101134.30
2018-08-22T21:12:58.014Z,101137.27
2018-08-22T21:15:26.371Z,101135.55
2018-08-22T21:17:54.746Z,101138.78
2018-08-22T21:20:24.901Z,101131.97
2018-08-22T21:22:54.309Z,101131.20
2018-08-22T21:25:22.697Z,101134.81
2018-08-22T21:27:51.672Z,101135.81
2018-08-22T21:30:20.039Z,101132.93
2018-08-22T21:32:49.962Z,101127.97
2018-08-22T21:35:26.171Z,101130.18
2018-08-22T21:37:58.090Z,101134.05
2018-08-22T21:40:26.442Z,101131.92
2018-08-22T21:42:54.792Z,101134.38
2018-08-22T21:45:23.202Z,101130.30
2018-08-22T21:48:04.961Z,101127.94
2018-08-22T21:50:33.343Z,101131.17
2018-08-22T21:53:02.846Z,101128.55
2018-08-22T21:55:37.341Z,101133.13
2018-08-22T21:59:30.187Z,101130.67
2018-08-22T22:02:04.015Z,101129.66
2018-08-22T22:04:37.494Z,101122.47
2018-08-22T22:07:06.796Z,101124.44
2018-08-22T22:09:35.789Z,101120.34
2018-08-22T22:12:04.675Z,101120.22
2018-08-22T22:14:35.084Z,101116.62
2018-08-22T22:17:04.193Z,101115.89
2018-08-22T22:19:33.836Z,101118.36
2018-08-22T22:22:03.004Z,101107.69
2018-08-22T22:24:31.326Z,101115.50
2018-08-22T22:27:00.067Z,101111.28
2018-08-22T22:29:32.593Z,101110.05
2018-08-22T22:32:00.938Z,101111.64
2018-08-22T22:34:29.379Z,101106.06
2018-08-22T22:36:57.727Z,101104.33
2018-08-22T22:39:36.541Z,101099.48
2018-08-22T22:42:12.574Z,101106.02
2018-08-22T22:44:43.374Z,101099.48
2018-08-22T22:47:16.897Z,101104.92
2018-08-22T22:49:45.254Z,101103.30
2018-08-22T22:52:24.727Z,101104.89
2018-08-22T22:54:54.942Z,101091.00
2018-08-22T22:57:23.729Z,101093.82
2018-08-22T22:59:52.512Z,101096.67
2018-08-22T23:02:23.615Z,101096.91
2018-08-22T23:04:52.787Z,101094.41
2018-08-22T23:07:24.836Z,101099.49
2018-08-22T23:09:55.451Z,101093.41
2018-08-22T23:12:40.716Z,101091.81
2018-08-22T23:15:11.374Z,101088.95
2018-08-22T23:17:40.144Z,101079.52
2018-08-22T23:20:18.899Z,101081.23
2018-08-22T23:22:47.254Z,101077.37
2018-08-22T23:25:15.612Z,101070.84
2018-08-22T23:27:43.939Z,101073.66
2018-08-22T23:30:15.500Z,101067.11
2018-08-22T23:32:44.185Z,101067.70
2018-08-22T23:35:20.815Z,101067.34
2018-08-22T23:38:55.362Z,101058.66
2018-08-22T23:41:23.691Z,101055.55
2018-08-22T23:43:52.818Z,101057.53
2018-08-22T23:46:21.152Z,101052.94
2018-08-22T23:48:56.649Z,101052.08
2018-08-22T23:51:24.975Z,101050.08
2018-08-22T23:53:57.016Z,101048.72
2018-08-22T23:56:27.393Z,101048.94
2018-08-22T23:58:56.319Z,101049.53
